sensor_id;sensor_type;location;lat;lon;timestamp;temperature;humidity
10583;DHT22;33679;51.218;6.786;2023-12-22T00:01:36;9.00;99.90
10583;DHT22;33679;51.218;6.786;2023-12-22T00:04:10;9.00;99.90
10583;DHT22;33679;51.218;6.786;2023-12-22T00:06:45;9.10;99.90
10583;DHT22;33679;51.218;6.786;2023-12-22T00:09:19;9.10;99.90
10583;DHT22;33679;51.218;6.786;2023-12-22T00:11:51;9.20;99.90
10583;DHT22;33679;51.218;6.786;2023-12-22T00:14:24;9.30;99.90
10583;DHT22;33679;51.218;6.786;2023-12-22T00:16:57;9.40;99.90
10583;DHT22;33679;51.218;6.786;2023-12-22T00:19:31;9.40;99.90
10583;DHT22;33679;51.218;6.786;2023-12-22T00:22:05;9.40;99.90
10583;DHT22;33679;51.218;6.786;2023-12-22T00:24:38;9.40;99.90
10583;DHT22;33679;51.218;6.786;2023-12-22T00:27:14;9.40;99.90
10583;DHT22;33679;51.218;6.786;2023-12-22T00:29:47;9.40;99.90
10583;DHT22;33679;51.218;6.786;2023-12-22T00:32:21;9.30;99.90
10583;DHT22;33679;51.218;6.786;2023-12-22T00:34:55;9.30;99.90
10583;DHT22;33679;51.218;6.786;2023-12-22T00:37:29;9.30;99.90
10583;DHT22;33679;51.218;6.786;2023-12-22T00:40:02;9.30;99.90
10583;DHT22;33679;51.218;6.786;2023-12-22T00:42:37;9.20;99.90
10583;DHT22;33679;51.218;6.786;2023-12-22T00:45:10;9.30;99.90
10583;DHT22;33679;51.218;6.786;2023-12-22T00:47:43;9.20;99.90
10583;DHT22;33679;51.218;6.786;2023-12-22T00:50:17;9.20;99.90
10583;DHT22;33679;51.218;6.786;2023-12-22T00:52:50;9.20;99.90
10583;DHT22;33679;51.218;6.786;2023-12-22T00:55:25;9.20;99.90
10583;DHT22;33679;51.218;6.786;2023-12-22T00:57:58;9.10;99.90
10583;DHT22;33679;51.218;6.786;2023-12-22T01:00:31;9.00;99.90
10583;DHT22;33679;51.218;6.786;2023-12-22T01:03:04;8.90;99.90
10583;DHT22;33679;51.218;6.786;2023-12-22T01:05:38;8.90;99.90
10583;DHT22;33679;51.218;6.786;2023-12-22T01:08:11;9.00;99.90
10583;DHT22;33679;51.218;6.786;2023-12-22T01:10:46;9.10;99.90
10583;DHT22;33679;51.218;6.786;2023-12-22T01:13:19;9.10;99.90
10583;DHT22;33679;51.218;6.786;2023-12-22T01:15:51;9.10;99.90
10583;DHT22;33679;51.218;6.786;2023-12-22T01:18:24;9.10;99.90
10583;DHT22;33679;51.218;6.786;2023-12-22T01:21:01;9.10;99.90
10583;DHT22;33679;51.218;6.786;2023-12-22T01:23:36;9.10;99.90
10583;DHT22;33679;51.218;6.786;2023-12-22T01:26:10;9.10;99.90
10583;DHT22;33679;51.218;6.786;2023-12-22T01:28:42;9.10;99.90
10583;DHT22;33679;51.218;6.786;2023-12-22T01:31:17;9.20;99.90
10583;DHT22;33679;51.218;6.786;2023-12-22T01:33:50;9.20;99.90
10583;DHT22;33679;51.218;6.786;2023-12-22T01:36:24;9.30;99.90
10583;DHT22;33679;51.218;6.786;2023-12-22T01:38:57;9.40;99.90
10583;DHT22;33679;51.218;6.786;2023-12-22T01:41:30;9.40;99.90
10583;DHT22;33679;51.218;6.786;2023-12-22T01:44:06;9.40;99.90
10583;DHT22;33679;51.218;6.786;2023-12-22T01:46:39;9.40;99.90
10583;DHT22;33679;51.218;6.786;2023-12-22T01:49:12;9.30;99.90
10583;DHT22;33679;51.218;6.786;2023-12-22T01:51:46;9.40;99.90
10583;DHT22;33679;51.218;6.786;2023-12-22T01:54:19;9.40;99.90
10583;DHT22;33679;51.218;6.786;2023-12-22T01:56:54;9.30;99.90
10583;DHT22;33679;51.218;6.786;2023-12-22T01:59:28;9.30;99.90
10583;DHT22;33679;51.218;6.786;2023-12-22T02:02:05;9.20;99.90
10583;DHT22;33679;51.218;6.786;2023-12-22T02:04:38;9.20;99.90
10583;DHT22;33679;51.218;6.786;2023-12-22T02:07:16;9.30;99.90
10583;DHT22;33679;51.218;6.786;2023-12-22T02:09:51;9.30;99.90
10583;DHT22;33679;51.218;6.786;2023-12-22T02:12:31;9.30;99.90
10583;DHT22;33679;51.218;6.786;2023-12-22T02:15:05;9.30;99.90
10583;DHT22;33679;51.218;6.786;2023-12-22T02:17:43;9.30;99.90
10583;DHT22;33679;51.218;6.786;2023-12-22T02:20:17;9.40;99.90
10583;DHT22;33679;51.218;6.786;2023-12-22T02:22:53;9.40;99.90
10583;DHT22;33679;51.218;6.786;2023-12-22T02:25:25;9.50;99.90
10583;DHT22;33679;51.218;6.786;2023-12-22T02:28:04;9.60;99.90
10583;DHT22;33679;51.218;6.786;2023-12-22T02:30:41;9.60;99.90
10583;DHT22;33679;51.218;6.786;2023-12-22T02:33:16;9.60;99.90
10583;DHT22;33679;51.218;6.786;2023-12-22T02:35:50;9.60;99.90
10583;DHT22;33679;51.218;6.786;2023-12-22T02:38:26;9.40;99.90
10583;DHT22;33679;51.218;6.786;2023-12-22T02:41:00;9.30;99.90
10583;DHT22;33679;51.218;6.786;2023-12-22T02:43:34;9.20;99.90
10583;DHT22;33679;51.218;6.786;2023-12-22T02:46:13;9.00;99.90
10583;DHT22;33679;51.218;6.786;2023-12-22T02:48:47;9.00;99.90
10583;DHT22;33679;51.218;6.786;2023-12-22T02:51:22;8.90;99.90
10583;DHT22;33679;51.218;6.786;2023-12-22T02:53:59;8.90;99.90
10583;DHT22;33679;51.218;6.786;2023-12-22T02:56:31;8.90;99.90
10583;DHT22;33679;51.218;6.786;2023-12-22T02:59:07;8.90;99.90
10583;DHT22;33679;51.218;6.786;2023-12-22T03:01:40;8.90;99.90
10583;DHT22;33679;51.218;6.786;2023-12-22T03:04:13;8.90;99.90
10583;DHT22;33679;51.218;6.786;2023-12-22T03:06:50;8.90;99.90
10583;DHT22;33679;51.218;6.786;2023-12-22T03:09:26;8.80;99.90
10583;DHT22;33679;51.218;6.786;2023-12-22T03:12:00;8.80;99.90
10583;DHT22;33679;51.218;6.786;2023-12-22T03:14:34;8.80;99.90
10583;DHT22;33679;51.218;6.786;2023-12-22T03:17:07;8.90;99.90
10583;DHT22;33679;51.218;6.786;2023-12-22T03:19:40;8.90;99.90
10583;DHT22;33679;51.218;6.786;2023-12-22T03:22:13;9.10;99.90
10583;DHT22;33679;51.218;6.786;2023-12-22T03:24:47;9.10;99.90
10583;DHT22;33679;51.218;6.786;2023-12-22T03:27:19;9.20;99.90
10583;DHT22;33679;51.218;6.786;2023-12-22T03:29:53;9.20;99.90
10583;DHT22;33679;51.218;6.786;2023-12-22T03:32:26;9.20;99.90
10583;DHT22;33679;51.218;6.786;2023-12-22T03:34:58;9.30;99.90
10583;DHT22;33679;51.218;6.786;2023-12-22T03:37:30;9.30;99.90
10583;DHT22;33679;51.218;6.786;2023-12-22T03:40:10;9.30;99.90
10583;DHT22;33679;51.218;6.786;2023-12-22T03:42:43;9.30;99.90
10583;DHT22;33679;51.218;6.786;2023-12-22T03:45:16;9.30;99.90
10583;DHT22;33679;51.218;6.786;2023-12-22T03:47:48;9.30;99.90
10583;DHT22;33679;51.218;6.786;2023-12-22T03:50:21;9.20;99.90
10583;DHT22;33679;51.218;6.786;2023-12-22T03:52:54;9.30;99.90
10583;DHT22;33679;51.218;6.786;2023-12-22T03:55:31;9.30;99.90
10583;DHT22;33679;51.218;6.786;2023-12-22T03:58:04;9.30;99.90
10583;DHT22;33679;51.218;6.786;2023-12-22T04:00:45;9.30;99.90
10583;DHT22;33679;51.218;6.786;2023-12-22T04:03:18;9.30;99.90
10583;DHT22;33679;51.218;6.786;2023-12-22T04:05:51;9.40;99.90
10583;DHT22;33679;51.218;6.786;2023-12-22T04:08:24;9.40;99.90
10583;DHT22;33679;51.218;6.786;2023-12-22T04:10:58;9.50;99.90
10583;DHT22;33679;51.218;6.786;2023-12-22T04:13:32;9.60;99.90
10583;DHT22;33679;51.218;6.786;2023-12-22T04:16:07;9.70;99.90
10583;DHT22;33679;51.218;6.786;2023-12-22T04:18:40;9.70;99.90
10583;DHT22;33679;51.218;6.786;2023-12-22T04:21:13;9.70;99.90
10583;DHT22;33679;51.218;6.786;2023-12-22T04:23:48;9.70;99.90
10583;DHT22;33679;51.218;6.786;2023-12-22T04:26:22;9.70;99.90
10583;DHT22;33679;51.218;6.786;2023-12-22T04:28:55;9.50;99.90
10583;DHT22;33679;51.218;6.786;2023-12-22T04:31:27;9.40;99.90
10583;DHT22;33679;51.218;6.786;2023-12-22T04:33:59;9.40;99.90
10583;DHT22;33679;51.218;6.786;2023-12-22T04:36:32;9.30;99.90
10583;DHT22;33679;51.218;6.786;2023-12-22T04:39:05;9.30;99.90
10583;DHT22;33679;51.218;6.786;2023-12-22T04:41:40;9.20;99.90
10583;DHT22;33679;51.218;6.786;2023-12-22T04:44:12;9.20;99.90
10583;DHT22;33679;51.218;6.786;2023-12-22T04:46:45;9.20;99.90
10583;DHT22;33679;51.218;6.786;2023-12-22T04:49:17;9.30;99.90
10583;DHT22;33679;51.218;6.786;2023-12-22T04:51:50;9.30;99.90
10583;DHT22;33679;51.218;6.786;2023-12-22T04:54:24;9.30;99.90
10583;DHT22;33679;51.218;6.786;2023-12-22T04:56:58;9.30;99.90
10583;DHT22;33679;51.218;6.786;2023-12-22T04:59:32;9.40;99.90
10583;DHT22;33679;51.218;6.786;2023-12-22T05:02:05;9.40;99.90
10583;DHT22;33679;51.218;6.786;2023-12-22T05:04:39;9.50;99.90
10583;DHT22;33679;51.218;6.786;2023-12-22T05:07:13;9.50;99.90
10583;DHT22;33679;51.218;6.786;2023-12-22T05:09:46;9.60;99.90
10583;DHT22;33679;51.218;6.786;2023-12-22T05:12:20;9.70;99.90
10583;DHT22;33679;51.218;6.786;2023-12-22T05:14:54;9.80;99.90
10583;DHT22;33679;51.218;6.786;2023-12-22T05:17:26;9.80;99.90
10583;DHT22;33679;51.218;6.786;2023-12-22T05:19:59;9.80;99.90
10583;DHT22;33679;51.218;6.786;2023-12-22T05:22:31;9.90;99.90
10583;DHT22;33679;51.218;6.786;2023-12-22T05:25:05;9.90;99.90
10583;DHT22;33679;51.218;6.786;2023-12-22T05:27:40;10.00;99.90
10583;DHT22;33679;51.218;6.786;2023-12-22T05:30:14;10.00;99.90
10583;DHT22;33679;51.218;6.786;2023-12-22T05:32:46;10.00;99.90
10583;DHT22;33679;51.218;6.786;2023-12-22T05:35:19;10.10;99.90
10583;DHT22;33679;51.218;6.786;2023-12-22T05:37:51;10.10;99.90
10583;DHT22;33679;51.218;6.786;2023-12-22T05:40:24;10.10;99.90
10583;DHT22;33679;51.218;6.786;2023-12-22T05:43:01;10.20;99.90
10583;DHT22;33679;51.218;6.786;2023-12-22T05:45:33;10.20;99.90
10583;DHT22;33679;51.218;6.786;2023-12-22T05:48:07;10.20;99.90
10583;DHT22;33679;51.218;6.786;2023-12-22T05:50:41;10.40;99.90
10583;DHT22;33679;51.218;6.786;2023-12-22T05:53:14;10.40;99.90
10583;DHT22;33679;51.218;6.786;2023-12-22T05:55:47;10.40;99.90
10583;DHT22;33679;51.218;6.786;2023-12-22T05:58:21;10.40;99.90
10583;DHT22;33679;51.218;6.786;2023-12-22T06:00:53;10.40;99.90
10583;DHT22;33679;51.218;6.786;2023-12-22T06:03:26;10.50;99.90
10583;DHT22;33679;51.218;6.786;2023-12-22T06:05:58;10.50;99.90
10583;DHT22;33679;51.218;6.786;2023-12-22T06:08:32;10.60;99.90
10583;DHT22;33679;51.218;6.786;2023-12-22T06:11:05;10.60;99.90
10583;DHT22;33679;51.218;6.786;2023-12-22T06:13:39;10.60;99.90
10583;DHT22;33679;51.218;6.786;2023-12-22T06:16:12;10.70;99.90
10583;DHT22;33679;51.218;6.786;2023-12-22T06:18:45;10.70;99.90
10583;DHT22;33679;51.218;6.786;2023-12-22T06:21:20;10.60;99.90
10583;DHT22;33679;51.218;6.786;2023-12-22T06:23:53;10.70;99.90
10583;DHT22;33679;51.218;6.786;2023-12-22T06:26:27;10.70;99.90
10583;DHT22;33679;51.218;6.786;2023-12-22T06:29:01;10.80;99.90
10583;DHT22;33679;51.218;6.786;2023-12-22T06:31:37;10.90;99.90
10583;DHT22;33679;51.218;6.786;2023-12-22T06:34:14;10.90;99.90
10583;DHT22;33679;51.218;6.786;2023-12-22T06:36:46;10.80;99.90
10583;DHT22;33679;51.218;6.786;2023-12-22T06:39:27;10.80;99.90
10583;DHT22;33679;51.218;6.786;2023-12-22T06:42:00;10.80;99.90
10583;DHT22;33679;51.218;6.786;2023-12-22T06:44:34;10.80;99.90
10583;DHT22;33679;51.218;6.786;2023-12-22T06:47:06;10.90;99.90
10583;DHT22;33679;51.218;6.786;2023-12-22T06:49:39;10.90;99.90
10583;DHT22;33679;51.218;6.786;2023-12-22T06:52:13;10.90;99.90
10583;DHT22;33679;51.218;6.786;2023-12-22T06:54:45;10.90;99.90
10583;DHT22;33679;51.218;6.786;2023-12-22T06:57:18;10.90;99.90
10583;DHT22;33679;51.218;6.786;2023-12-22T06:59:54;10.90;99.90
10583;DHT22;33679;51.218;6.786;2023-12-22T07:02:27;11.00;99.90
10583;DHT22;33679;51.218;6.786;2023-12-22T07:05:32;11.00;99.90
10583;DHT22;33679;51.218;6.786;2023-12-22T07:08:07;11.00;99.90
10583;DHT22;33679;51.218;6.786;2023-12-22T07:10:40;11.00;99.90
10583;DHT22;33679;51.218;6.786;2023-12-22T07:13:13;11.00;99.90
10583;DHT22;33679;51.218;6.786;2023-12-22T07:15:47;11.00;99.90
10583;DHT22;33679;51.218;6.786;2023-12-22T07:18:21;11.00;99.90
10583;DHT22;33679;51.218;6.786;2023-12-22T07:20:54;11.00;99.90
10583;DHT22;33679;51.218;6.786;2023-12-22T07:23:33;11.00;99.90
10583;DHT22;33679;51.218;6.786;2023-12-22T07:26:07;11.00;99.90
10583;DHT22;33679;51.218;6.786;2023-12-22T07:28:44;11.00;99.90
10583;DHT22;33679;51.218;6.786;2023-12-22T07:31:18;10.90;99.90
10583;DHT22;33679;51.218;6.786;2023-12-22T07:33:53;10.90;99.90
10583;DHT22;33679;51.218;6.786;2023-12-22T07:36:29;10.80;99.90
10583;DHT22;33679;51.218;6.786;2023-12-22T07:39:03;10.90;99.90
10583;DHT22;33679;51.218;6.786;2023-12-22T07:41:37;10.80;99.90
10583;DHT22;33679;51.218;6.786;2023-12-22T07:44:11;10.80;99.90
10583;DHT22;33679;51.218;6.786;2023-12-22T07:46:45;10.80;99.90
10583;DHT22;33679;51.218;6.786;2023-12-22T07:49:17;10.80;99.90
10583;DHT22;33679;51.218;6.786;2023-12-22T07:51:55;10.80;99.90
10583;DHT22;33679;51.218;6.786;2023-12-22T07:54:27;10.80;99.90
10583;DHT22;33679;51.218;6.786;2023-12-22T07:57:00;10.80;99.90
10583;DHT22;33679;51.218;6.786;2023-12-22T07:59:35;10.70;99.90
10583;DHT22;33679;51.218;6.786;2023-12-22T08:02:18;10.60;99.90
10583;DHT22;33679;51.218;6.786;2023-12-22T08:04:53;10.60;99.90
10583;DHT22;33679;51.218;6.786;2023-12-22T08:07:26;10.70;99.90
10583;DHT22;33679;51.218;6.786;2023-12-22T08:10:00;10.70;99.90
10583;DHT22;33679;51.218;6.786;2023-12-22T08:12:33;10.70;99.90
10583;DHT22;33679;51.218;6.786;2023-12-22T08:15:09;10.70;99.90
10583;DHT22;33679;51.218;6.786;2023-12-22T08:17:47;10.70;99.90
10583;DHT22;33679;51.218;6.786;2023-12-22T08:20:21;10.70;99.90
10583;DHT22;33679;51.218;6.786;2023-12-22T08:22:55;10.70;99.90
10583;DHT22;33679;51.218;6.786;2023-12-22T08:25:28;10.80;99.90
10583;DHT22;33679;51.218;6.786;2023-12-22T08:28:01;10.90;99.90
10583;DHT22;33679;51.218;6.786;2023-12-22T08:30:37;10.90;99.90
10583;DHT22;33679;51.218;6.786;2023-12-22T08:33:12;11.00;99.90
10583;DHT22;33679;51.218;6.786;2023-12-22T08:35:45;11.20;99.90
10583;DHT22;33679;51.218;6.786;2023-12-22T08:38:17;11.20;99.90
10583;DHT22;33679;51.218;6.786;2023-12-22T08:40:50;11.20;99.90
10583;DHT22;33679;51.218;6.786;2023-12-22T08:43:22;11.20;99.90
10583;DHT22;33679;51.218;6.786;2023-12-22T08:45:55;11.20;99.90
10583;DHT22;33679;51.218;6.786;2023-12-22T08:48:30;11.20;99.90
10583;DHT22;33679;51.218;6.786;2023-12-22T08:51:04;11.30;99.90
10583;DHT22;33679;51.218;6.786;2023-12-22T08:53:41;11.40;99.90
10583;DHT22;33679;51.218;6.786;2023-12-22T08:56:14;11.40;99.90
10583;DHT22;33679;51.218;6.786;2023-12-22T08:58:48;11.40;99.90
10583;DHT22;33679;51.218;6.786;2023-12-22T09:01:22;11.40;99.90
10583;DHT22;33679;51.218;6.786;2023-12-22T09:03:57;11.40;99.90
10583;DHT22;33679;51.218;6.786;2023-12-22T09:06:31;11.50;99.90
10583;DHT22;33679;51.218;6.786;2023-12-22T09:09:04;11.60;99.90
10583;DHT22;33679;51.218;6.786;2023-12-22T09:11:38;11.70;99.90
10583;DHT22;33679;51.218;6.786;2023-12-22T09:14:12;11.90;99.90
10583;DHT22;33679;51.218;6.786;2023-12-22T09:16:47;11.90;99.90
10583;DHT22;33679;51.218;6.786;2023-12-22T09:19:21;11.90;99.90
10583;DHT22;33679;51.218;6.786;2023-12-22T09:21:56;12.00;99.90
10583;DHT22;33679;51.218;6.786;2023-12-22T09:24:30;12.10;99.90
10583;DHT22;33679;51.218;6.786;2023-12-22T09:27:03;12.20;99.90
10583;DHT22;33679;51.218;6.786;2023-12-22T09:29:36;12.30;99.90
10583;DHT22;33679;51.218;6.786;2023-12-22T09:32:09;12.40;99.90
10583;DHT22;33679;51.218;6.786;2023-12-22T09:34:44;12.30;99.90
10583;DHT22;33679;51.218;6.786;2023-12-22T09:37:18;12.40;99.90
10583;DHT22;33679;51.218;6.786;2023-12-22T09:39:53;12.20;99.90
10583;DHT22;33679;51.218;6.786;2023-12-22T09:42:26;12.20;99.90
10583;DHT22;33679;51.218;6.786;2023-12-22T09:45:00;12.10;99.90
10583;DHT22;33679;51.218;6.786;2023-12-22T09:47:35;12.10;99.90
10583;DHT22;33679;51.218;6.786;2023-12-22T09:50:10;12.00;99.90
10583;DHT22;33679;51.218;6.786;2023-12-22T09:52:46;12.00;99.90
10583;DHT22;33679;51.218;6.786;2023-12-22T09:55:22;11.90;99.90
10583;DHT22;33679;51.218;6.786;2023-12-22T09:57:57;11.80;99.90
10583;DHT22;33679;51.218;6.786;2023-12-22T10:00:31;11.90;99.90
10583;DHT22;33679;51.218;6.786;2023-12-22T10:03:12;11.90;99.90
10583;DHT22;33679;51.218;6.786;2023-12-22T10:05:55;11.90;99.90
10583;DHT22;33679;51.218;6.786;2023-12-22T10:08:32;11.90;99.90
10583;DHT22;33679;51.218;6.786;2023-12-22T10:11:12;12.00;99.90
10583;DHT22;33679;51.218;6.786;2023-12-22T10:13:50;12.00;99.90
10583;DHT22;33679;51.218;6.786;2023-12-22T10:16:25;12.00;99.90
10583;DHT22;33679;51.218;6.786;2023-12-22T10:19:00;12.10;99.90
10583;DHT22;33679;51.218;6.786;2023-12-22T10:21:48;12.10;99.90
10583;DHT22;33679;51.218;6.786;2023-12-22T10:24:44;12.20;99.90
10583;DHT22;33679;51.218;6.786;2023-12-22T10:27:47;12.20;99.90
10583;DHT22;33679;51.218;6.786;2023-12-22T10:30:23;12.20;99.90
10583;DHT22;33679;51.218;6.786;2023-12-22T10:32:56;12.00;99.90
10583;DHT22;33679;51.218;6.786;2023-12-22T10:35:30;12.00;99.90
10583;DHT22;33679;51.218;6.786;2023-12-22T10:38:05;12.10;99.90
10583;DHT22;33679;51.218;6.786;2023-12-22T10:40:45;12.10;99.90
10583;DHT22;33679;51.218;6.786;2023-12-22T10:43:21;12.20;99.90
10583;DHT22;33679;51.218;6.786;2023-12-22T10:46:05;12.20;99.90
10583;DHT22;33679;51.218;6.786;2023-12-22T10:48:40;12.40;99.90
10583;DHT22;33679;51.218;6.786;2023-12-22T10:51:14;12.50;99.90
10583;DHT22;33679;51.218;6.786;2023-12-22T10:53:51;12.40;99.90
10583;DHT22;33679;51.218;6.786;2023-12-22T10:56:24;12.40;99.90
10583;DHT22;33679;51.218;6.786;2023-12-22T10:58:57;12.30;99.90
10583;DHT22;33679;51.218;6.786;2023-12-22T11:01:31;12.30;99.90
10583;DHT22;33679;51.218;6.786;2023-12-22T11:04:13;12.30;99.90
10583;DHT22;33679;51.218;6.786;2023-12-22T11:06:52;12.30;99.90
10583;DHT22;33679;51.218;6.786;2023-12-22T11:09:35;12.40;99.90
10583;DHT22;33679;51.218;6.786;2023-12-22T11:12:15;12.30;99.90
10583;DHT22;33679;51.218;6.786;2023-12-22T11:14:49;12.20;99.90
10583;DHT22;33679;51.218;6.786;2023-12-22T11:17:24;12.20;99.90
10583;DHT22;33679;51.218;6.786;2023-12-22T11:20:05;12.20;99.90
10583;DHT22;33679;51.218;6.786;2023-12-22T11:22:42;12.40;99.90
10583;DHT22;33679;51.218;6.786;2023-12-22T11:25:17;12.40;99.90
10583;DHT22;33679;51.218;6.786;2023-12-22T11:27:50;12.40;99.90
10583;DHT22;33679;51.218;6.786;2023-12-22T11:30:25;12.40;99.90
10583;DHT22;33679;51.218;6.786;2023-12-22T11:33:02;12.40;99.90
10583;DHT22;33679;51.218;6.786;2023-12-22T11:35:38;12.30;99.90
10583;DHT22;33679;51.218;6.786;2023-12-22T11:38:13;12.40;99.90
10583;DHT22;33679;51.218;6.786;2023-12-22T11:40:48;12.40;99.90
10583;DHT22;33679;51.218;6.786;2023-12-22T11:43:22;12.40;99.90
10583;DHT22;33679;51.218;6.786;2023-12-22T11:45:55;12.40;99.90
10583;DHT22;33679;51.218;6.786;2023-12-22T11:48:29;12.40;99.90
10583;DHT22;33679;51.218;6.786;2023-12-22T11:51:01;12.40;99.90
10583;DHT22;33679;51.218;6.786;2023-12-22T11:53:44;12.50;99.90
10583;DHT22;33679;51.218;6.786;2023-12-22T11:56:19;12.50;99.90
10583;DHT22;33679;51.218;6.786;2023-12-22T11:58:53;12.60;99.90
10583;DHT22;33679;51.218;6.786;2023-12-22T12:01:29;12.60;99.90
10583;DHT22;33679;51.218;6.786;2023-12-22T12:04:04;12.70;99.90
10583;DHT22;33679;51.218;6.786;2023-12-22T12:06:37;12.70;99.90
10583;DHT22;33679;51.218;6.786;2023-12-22T12:09:11;12.80;99.90
10583;DHT22;33679;51.218;6.786;2023-12-22T12:12:12;12.70;99.90
10583;DHT22;33679;51.218;6.786;2023-12-22T12:14:47;12.80;99.90
10583;DHT22;33679;51.218;6.786;2023-12-22T12:17:23;12.80;99.90
10583;DHT22;33679;51.218;6.786;2023-12-22T12:19:58;12.80;99.90
10583;DHT22;33679;51.218;6.786;2023-12-22T12:22:33;12.90;99.90
10583;DHT22;33679;51.218;6.786;2023-12-22T12:25:15;12.90;99.90
10583;DHT22;33679;51.218;6.786;2023-12-22T12:27:51;13.00;99.90
10583;DHT22;33679;51.218;6.786;2023-12-22T12:30:34;13.00;99.90
10583;DHT22;33679;51.218;6.786;2023-12-22T12:33:08;13.00;99.90
10583;DHT22;33679;51.218;6.786;2023-12-22T12:35:42;13.00;99.90
10583;DHT22;33679;51.218;6.786;2023-12-22T12:38:17;13.00;99.90
10583;DHT22;33679;51.218;6.786;2023-12-22T12:40:57;13.10;99.90
10583;DHT22;33679;51.218;6.786;2023-12-22T12:43:31;13.10;99.90
10583;DHT22;33679;51.218;6.786;2023-12-22T12:46:05;13.20;99.90
10583;DHT22;33679;51.218;6.786;2023-12-22T12:48:38;13.20;99.90
10583;DHT22;33679;51.218;6.786;2023-12-22T12:51:11;13.30;99.90
10583;DHT22;33679;51.218;6.786;2023-12-22T12:53:45;13.30;99.90
10583;DHT22;33679;51.218;6.786;2023-12-22T12:56:19;13.30;99.90
10583;DHT22;33679;51.218;6.786;2023-12-22T12:58:53;13.30;99.90
10583;DHT22;33679;51.218;6.786;2023-12-22T13:01:26;13.30;99.90
10583;DHT22;33679;51.218;6.786;2023-12-22T13:04:00;13.20;99.90
10583;DHT22;33679;51.218;6.786;2023-12-22T13:06:34;13.30;99.90
10583;DHT22;33679;51.218;6.786;2023-12-22T13:09:07;13.30;99.90
10583;DHT22;33679;51.218;6.786;2023-12-22T13:11:42;13.30;99.90
10583;DHT22;33679;51.218;6.786;2023-12-22T13:14:26;13.30;99.90
10583;DHT22;33679;51.218;6.786;2023-12-22T13:16:59;13.30;99.90
10583;DHT22;33679;51.218;6.786;2023-12-22T13:19:33;13.30;99.90
10583;DHT22;33679;51.218;6.786;2023-12-22T13:22:06;13.30;99.90
10583;DHT22;33679;51.218;6.786;2023-12-22T13:24:39;13.30;99.90
10583;DHT22;33679;51.218;6.786;2023-12-22T13:27:12;13.30;99.90
10583;DHT22;33679;51.218;6.786;2023-12-22T13:29:48;13.20;99.90
10583;DHT22;33679;51.218;6.786;2023-12-22T13:32:23;13.20;99.90
10583;DHT22;33679;51.218;6.786;2023-12-22T13:34:57;13.20;99.90
10583;DHT22;33679;51.218;6.786;2023-12-22T13:37:29;13.10;99.90
10583;DHT22;33679;51.218;6.786;2023-12-22T13:40:08;13.20;99.90
10583;DHT22;33679;51.218;6.786;2023-12-22T13:42:45;13.20;99.90
10583;DHT22;33679;51.218;6.786;2023-12-22T13:45:19;13.10;99.90
10583;DHT22;33679;51.218;6.786;2023-12-22T13:47:52;13.10;99.90
10583;DHT22;33679;51.218;6.786;2023-12-22T13:50:26;13.10;99.90
10583;DHT22;33679;51.218;6.786;2023-12-22T13:53:08;13.00;99.90
10583;DHT22;33679;51.218;6.786;2023-12-22T13:55:41;13.00;99.90
10583;DHT22;33679;51.218;6.786;2023-12-22T13:58:14;13.10;99.90
10583;DHT22;33679;51.218;6.786;2023-12-22T14:00:50;13.10;99.90
10583;DHT22;33679;51.218;6.786;2023-12-22T14:03:22;13.10;99.90
10583;DHT22;33679;51.218;6.786;2023-12-22T14:05:54;13.10;99.90
10583;DHT22;33679;51.218;6.786;2023-12-22T14:08:30;13.10;99.90
10583;DHT22;33679;51.218;6.786;2023-12-22T14:11:06;13.10;99.90
10583;DHT22;33679;51.218;6.786;2023-12-22T14:13:39;13.10;99.90
10583;DHT22;33679;51.218;6.786;2023-12-22T14:16:13;13.10;99.90
10583;DHT22;33679;51.218;6.786;2023-12-22T14:18:46;13.20;99.90
10583;DHT22;33679;51.218;6.786;2023-12-22T14:21:20;13.20;99.90
10583;DHT22;33679;51.218;6.786;2023-12-22T14:23:52;13.20;99.90
10583;DHT22;33679;51.218;6.786;2023-12-22T14:26:26;13.20;99.90
10583;DHT22;33679;51.218;6.786;2023-12-22T14:29:00;13.20;99.90
10583;DHT22;33679;51.218;6.786;2023-12-22T14:31:34;13.20;99.90
10583;DHT22;33679;51.218;6.786;2023-12-22T14:34:06;13.20;99.90
10583;DHT22;33679;51.218;6.786;2023-12-22T14:36:38;13.20;99.90
10583;DHT22;33679;51.218;6.786;2023-12-22T14:39:11;13.10;99.90
10583;DHT22;33679;51.218;6.786;2023-12-22T14:41:44;13.10;99.90
10583;DHT22;33679;51.218;6.786;2023-12-22T14:44:18;13.10;99.90
10583;DHT22;33679;51.218;6.786;2023-12-22T14:46:53;13.20;99.90
10583;DHT22;33679;51.218;6.786;2023-12-22T14:49:26;13.10;99.90
10583;DHT22;33679;51.218;6.786;2023-12-22T14:52:06;13.10;99.90
10583;DHT22;33679;51.218;6.786;2023-12-22T14:54:40;13.10;99.90
10583;DHT22;33679;51.218;6.786;2023-12-22T14:57:12;13.10;99.90
10583;DHT22;33679;51.218;6.786;2023-12-22T15:00:01;13.10;99.90
10583;DHT22;33679;51.218;6.786;2023-12-22T15:02:38;13.10;99.90
10583;DHT22;33679;51.218;6.786;2023-12-22T15:05:11;13.10;99.90
10583;DHT22;33679;51.218;6.786;2023-12-22T15:07:44;13.10;99.90
10583;DHT22;33679;51.218;6.786;2023-12-22T15:10:16;13.10;99.90
10583;DHT22;33679;51.218;6.786;2023-12-22T15:12:51;13.10;99.90
10583;DHT22;33679;51.218;6.786;2023-12-22T15:15:29;13.10;99.90
10583;DHT22;33679;51.218;6.786;2023-12-22T15:18:03;13.10;99.90
10583;DHT22;33679;51.218;6.786;2023-12-22T15:20:37;13.00;99.90
10583;DHT22;33679;51.218;6.786;2023-12-22T15:23:10;13.00;99.90
10583;DHT22;33679;51.218;6.786;2023-12-22T15:25:44;13.00;99.90
10583;DHT22;33679;51.218;6.786;2023-12-22T15:28:21;12.90;99.90
10583;DHT22;33679;51.218;6.786;2023-12-22T15:30:53;12.90;99.90
10583;DHT22;33679;51.218;6.786;2023-12-22T15:33:28;12.90;99.90
10583;DHT22;33679;51.218;6.786;2023-12-22T15:36:03;12.80;99.90
10583;DHT22;33679;51.218;6.786;2023-12-22T15:38:42;12.80;99.90
10583;DHT22;33679;51.218;6.786;2023-12-22T15:41:17;12.90;99.90
10583;DHT22;33679;51.218;6.786;2023-12-22T15:43:51;12.80;99.90
10583;DHT22;33679;51.218;6.786;2023-12-22T15:46:23;12.80;99.90
10583;DHT22;33679;51.218;6.786;2023-12-22T15:48:57;12.80;99.90
10583;DHT22;33679;51.218;6.786;2023-12-22T15:51:30;12.70;99.90
10583;DHT22;33679;51.218;6.786;2023-12-22T15:54:03;12.70;99.90
10583;DHT22;33679;51.218;6.786;2023-12-22T15:56:35;12.60;99.90
10583;DHT22;33679;51.218;6.786;2023-12-22T15:59:10;12.60;99.90
10583;DHT22;33679;51.218;6.786;2023-12-22T16:01:43;12.60;99.90
10583;DHT22;33679;51.218;6.786;2023-12-22T16:04:20;12.60;99.90
10583;DHT22;33679;51.218;6.786;2023-12-22T16:07:07;12.60;99.90
10583;DHT22;33679;51.218;6.786;2023-12-22T16:09:40;12.70;99.90
10583;DHT22;33679;51.218;6.786;2023-12-22T16:12:12;12.70;99.90
10583;DHT22;33679;51.218;6.786;2023-12-22T16:14:45;12.60;99.90
10583;DHT22;33679;51.218;6.786;2023-12-22T16:17:18;12.60;99.90
10583;DHT22;33679;51.218;6.786;2023-12-22T16:19:54;12.50;99.90
10583;DHT22;33679;51.218;6.786;2023-12-22T16:22:26;12.40;99.90